createdAt,value
2019-02-15T00:02:13.343Z,17.53
2019-02-15T00:04:44.798Z,17.23
2019-02-15T00:07:16.291Z,17.40
2019-02-15T00:09:47.996Z,16.87
2019-02-15T00:12:19.511Z,18.57
2019-02-15T00:14:51.451Z,18.93
2019-02-15T00:17:50.742Z,19.67
2019-02-15T00:20:30.371Z,18.53
2019-02-15T00:23:02.030Z,18.33
2019-02-15T00:25:37.229Z,20.70
2019-02-15T00:28:11.632Z,18.27
2019-02-15T00:30:43.099Z,17.23
2019-02-15T00:33:14.665Z,18.77
2019-02-15T00:35:47.341Z,17.80
2019-02-15T00:38:19.010Z,16.33
2019-02-15T00:40:50.570Z,14.67
2019-02-15T00:43:22.619Z,13.00
2019-02-15T00:46:13.191Z,15.17
2019-02-15T00:48:44.888Z,13.57
2019-02-15T00:51:35.280Z,11.60
2019-02-15T00:54:25.669Z,10.40
2019-02-15T00:57:27.029Z,10.60
2019-02-15T01:00:10.821Z,9.20
2019-02-15T01:03:06.251Z,8.17
2019-02-15T01:05:51.676Z,8.27
2019-02-15T01:08:53.953Z,8.90
2019-02-15T01:11:29.231Z,7.90
2019-02-15T01:14:00.680Z,9.17
2019-02-15T01:16:32.409Z,9.77
2019-02-15T01:19:03.914Z,9.40
2019-02-15T01:21:35.627Z,9.93
2019-02-15T01:24:07.288Z,10.50
2019-02-15T01:26:44.699Z,11.23
2019-02-15T01:29:47.281Z,11.83
2019-02-15T01:32:31.871Z,14.10
2019-02-15T01:35:37.159Z,14.77
2019-02-15T01:38:27.539Z,15.63
2019-02-15T01:41:21.098Z,15.63
2019-02-15T01:44:14.690Z,15.30
2019-02-15T01:46:53.052Z,17.50
2019-02-15T01:49:24.767Z,18.37
2019-02-15T01:51:56.405Z,19.00
2019-02-15T01:54:29.556Z,18.87
2019-02-15T01:57:01.100Z,17.73
2019-02-15T01:59:32.687Z,18.07
2019-02-15T02:02:04.201Z,19.30
2019-02-15T02:04:35.771Z,19.87
2019-02-15T02:07:07.271Z,20.77
2019-02-15T02:09:38.829Z,21.07
2019-02-15T02:12:10.770Z,22.07
2019-02-15T02:14:42.347Z,20.87
2019-02-15T02:17:13.940Z,20.43
2019-02-15T02:19:45.627Z,20.97
2019-02-15T02:22:17.210Z,20.67
2019-02-15T02:24:48.746Z,22.97
2019-02-15T02:27:20.546Z,22.33
2019-02-15T02:29:52.177Z,28.33
2019-02-15T02:32:24.947Z,24.47
2019-02-15T02:34:56.586Z,30.67
2019-02-15T02:37:28.231Z,26.80
2019-02-15T02:39:59.866Z,28.97
2019-02-15T02:42:31.589Z,23.63
2019-02-15T02:45:03.034Z,26.23
2019-02-15T02:47:34.668Z,25.47
2019-02-15T02:50:08.041Z,27.13
2019-02-15T02:52:39.600Z,29.10
2019-02-15T02:55:11.192Z,26.17
2019-02-15T02:57:42.849Z,24.70
2019-02-15T03:00:16.981Z,23.20
2019-02-15T03:02:48.479Z,20.77
2019-02-15T03:05:22.330Z,18.77
2019-02-15T03:07:53.866Z,17.90
2019-02-15T03:10:25.446Z,16.73
2019-02-15T03:12:57.090Z,17.13
2019-02-15T03:15:28.646Z,17.93
2019-02-15T03:18:00.324Z,18.50
2019-02-15T03:20:31.955Z,18.60
2019-02-15T03:23:03.518Z,18.30
2019-02-15T03:25:36.845Z,17.63
2019-02-15T03:28:08.294Z,18.60
2019-02-15T03:30:39.978Z,19.77
2019-02-15T03:33:11.639Z,19.87
2019-02-15T03:35:55.723Z,22.77
2019-02-15T03:38:33.764Z,22.63
2019-02-15T03:41:06.442Z,23.20
2019-02-15T03:43:37.994Z,24.83
2019-02-15T03:46:12.642Z,24.87
2019-02-15T03:48:44.202Z,25.53
2019-02-15T03:51:17.062Z,26.23
2019-02-15T03:53:48.585Z,23.57
2019-02-15T03:56:24.354Z,24.40
2019-02-15T03:58:55.794Z,24.63
2019-02-15T04:01:27.372Z,23.90
2019-02-15T04:03:59.015Z,24.23
2019-02-15T04:06:30.604Z,24.77
2019-02-15T04:09:02.212Z,25.13
2019-02-15T04:11:34.407Z,24.57
2019-02-15T04:14:06.103Z,23.80
2019-02-15T04:16:37.873Z,25.63
2019-02-15T04:19:09.575Z,24.10
2019-02-15T04:21:41.101Z,25.80
2019-02-15T04:24:13.561Z,26.83
2019-02-15T04:26:45.576Z,26.23
2019-02-15T04:29:17.061Z,26.50
2019-02-15T04:31:48.639Z,26.90
2019-02-15T04:34:22.668Z,27.13
2019-02-15T04:36:55.320Z,26.73
2019-02-15T04:39:26.781Z,28.87
2019-02-15T04:41:58.518Z,25.67
2019-02-15T04:44:30.219Z,27.27
2019-02-15T04:47:01.841Z,26.77
2019-02-15T04:49:33.305Z,27.37
2019-02-15T04:52:04.784Z,24.63
2019-02-15T04:54:36.501Z,23.63
2019-02-15T04:57:08.107Z,24.20
2019-02-15T04:59:39.793Z,23.43
2019-02-15T05:02:13.870Z,23.53
2019-02-15T05:04:45.419Z,23.77
2019-02-15T05:07:16.922Z,22.80
2019-02-15T05:09:48.532Z,22.63
2019-02-15T05:12:20.140Z,22.10
2019-02-15T05:14:53.612Z,21.07
2019-02-15T05:17:27.906Z,21.23
2019-02-15T05:19:59.453Z,22.13
2019-02-15T05:22:30.901Z,20.40
2019-02-15T05:25:04.837Z,22.17
2019-02-15T05:27:36.513Z,20.33
2019-02-15T05:30:08.380Z,19.67
2019-02-15T05:32:41.317Z,19.13
2019-02-15T05:35:12.881Z,20.37
2019-02-15T05:37:44.306Z,18.37
2019-02-15T05:40:15.950Z,17.63
2019-02-15T05:42:47.449Z,18.00
2019-02-15T05:45:19.128Z,17.33
2019-02-15T05:47:50.624Z,15.50
2019-02-15T05:50:22.152Z,13.93
2019-02-15T05:52:53.811Z,16.73
2019-02-15T05:55:25.412Z,16.47
2019-02-15T05:57:56.972Z,15.30
2019-02-15T06:00:36.873Z,14.57
2019-02-15T06:03:01.885Z,15.27
2019-02-15T06:05:33.573Z,15.97
2019-02-15T06:08:05.177Z,15.30
2019-02-15T06:10:36.902Z,15.67
2019-02-15T06:13:08.570Z,15.40
2019-02-15T06:15:40.112Z,17.40
2019-02-15T06:18:11.738Z,13.87
2019-02-15T06:20:43.262Z,14.20
2019-02-15T06:23:14.864Z,13.80
2019-02-15T06:25:46.404Z,12.80
2019-02-15T06:28:18.053Z,13.07
2019-02-15T06:30:49.717Z,13.63
2019-02-15T06:33:21.418Z,12.63
2019-02-15T06:35:53.058Z,13.37
2019-02-15T06:38:34.329Z,13.67
2019-02-15T06:40:58.142Z,12.87
2019-02-15T06:43:30.724Z,13.17
2019-02-15T06:46:02.335Z,12.67
2019-02-15T06:48:33.800Z,13.03
2019-02-15T06:51:05.567Z,11.40
2019-02-15T06:53:37.187Z,13.03
2019-02-15T06:56:08.779Z,10.27
2019-02-15T06:58:48.743Z,11.90
2019-02-15T07:01:29.293Z,10.07
2019-02-15T07:04:25.432Z,11.03
2019-02-15T07:06:57.131Z,10.17
2019-02-15T07:09:28.669Z,10.30
2019-02-15T07:12:00.300Z,9.40
2019-02-15T07:14:31.951Z,8.47
2019-02-15T07:17:03.628Z,8.80
2019-02-15T07:19:35.140Z,9.47
2019-02-15T07:22:06.701Z,8.60
2019-02-15T07:24:38.301Z,7.97
2019-02-15T07:27:09.842Z,9.00
2019-02-15T07:29:41.473Z,8.67
2019-02-15T07:32:13.013Z,8.67
2019-02-15T07:34:44.733Z,9.37
2019-02-15T07:37:16.368Z,8.30
2019-02-15T07:39:48.068Z,8.67
2019-02-15T07:42:21.155Z,8.50
2019-02-15T07:44:54.687Z,9.33
2019-02-15T07:47:26.269Z,8.90
2019-02-15T07:49:57.757Z,8.50
2019-02-15T07:52:29.485Z,7.20
2019-02-15T07:55:00.971Z,8.20
2019-02-15T07:57:33.958Z,6.97
2019-02-15T08:00:07.029Z,7.43
2019-02-15T08:02:38.590Z,6.80
2019-02-15T08:05:12.373Z,7.83
2019-02-15T08:07:44.027Z,7.33
2019-02-15T08:10:15.689Z,6.47
2019-02-15T08:12:47.435Z,8.10
2019-02-15T08:15:19.157Z,6.20
2019-02-15T08:17:50.807Z,6.77
2019-02-15T08:20:22.481Z,6.57
2019-02-15T08:22:54.075Z,6.10
2019-02-15T08:25:25.705Z,5.80
2019-02-15T08:27:57.331Z,6.17
2019-02-15T08:30:28.868Z,6.77
2019-02-15T08:33:00.402Z,6.43
2019-02-15T08:35:32.205Z,6.70
2019-02-15T08:38:03.890Z,8.00
2019-02-15T08:40:37.420Z,6.70
2019-02-15T08:43:08.827Z,7.83
2019-02-15T08:45:41.390Z,6.83
2019-02-15T08:48:12.913Z,8.40
2019-02-15T08:50:45.749Z,7.10
2019-02-15T08:53:17.497Z,7.73
2019-02-15T08:55:49.132Z,6.87
2019-02-15T08:58:23.792Z,8.40
2019-02-15T09:00:55.527Z,7.80
2019-02-15T09:03:27.137Z,7.83
2019-02-15T09:05:58.815Z,8.60
2019-02-15T09:08:30.326Z,9.23
2019-02-15T09:11:02.414Z,8.53
2019-02-15T09:13:34.214Z,8.70
2019-02-15T09:16:10.290Z,9.33
2019-02-15T09:18:39.179Z,8.80
2019-02-15T09:21:11.012Z,8.93
2019-02-15T09:23:43.821Z,8.87
2019-02-15T09:26:18.205Z,9.67
2019-02-15T09:28:52.942Z,9.17
2019-02-15T09:31:24.582Z,8.97
2019-02-15T09:33:56.297Z,8.70
2019-02-15T09:36:28.002Z,9.37
2019-02-15T09:38:59.805Z,8.73
2019-02-15T09:41:31.463Z,8.33
2019-02-15T09:44:03.030Z,8.17
2019-02-15T09:46:38.171Z,8.60
2019-02-15T09:49:09.723Z,7.30
2019-02-15T09:51:41.310Z,8.33
2019-02-15T09:54:12.877Z,7.93
2019-02-15T09:56:44.650Z,7.47
2019-02-15T09:59:16.245Z,7.33
2019-02-15T10:01:47.915Z,7.60
2019-02-15T10:04:19.865Z,7.13
2019-02-15T10:06:51.567Z,6.33
2019-02-15T10:09:23.166Z,6.23
2019-02-15T10:11:54.937Z,6.40
2019-02-15T10:14:26.457Z,5.93
2019-02-15T10:16:58.219Z,5.93
2019-02-15T10:19:29.804Z,6.67
2019-02-15T10:22:01.397Z,6.57
2019-02-15T10:24:33.201Z,6.30
2019-02-15T10:27:04.930Z,6.00
2019-02-15T10:29:36.550Z,5.97
2019-02-15T10:32:08.345Z,5.80
2019-02-15T10:34:41.117Z,6.30
2019-02-15T10:37:15.458Z,6.10
2019-02-15T10:39:47.073Z,6.40
2019-02-15T10:42:18.654Z,6.53
2019-02-15T10:44:50.355Z,6.53
2019-02-15T10:47:25.288Z,6.37
2019-02-15T10:49:57.847Z,6.93
2019-02-15T10:52:29.336Z,7.50
2019-02-15T10:55:00.833Z,5.33
2019-02-15T10:57:32.371Z,4.87
2019-02-15T11:00:04.031Z,5.00
2019-02-15T11:02:35.706Z,4.97
2019-02-15T11:05:08.181Z,4.90
2019-02-15T11:07:39.930Z,5.63
2019-02-15T11:10:11.678Z,5.87
2019-02-15T11:12:43.348Z,5.20
2019-02-15T11:15:15.332Z,5.57
2019-02-15T11:17:47.122Z,5.33
2019-02-15T11:20:18.900Z,5.60
2019-02-15T11:22:56.886Z,5.37
2019-02-15T11:25:28.644Z,4.90
2019-02-15T11:28:00.189Z,5.97
2019-02-15T11:30:31.786Z,5.40
2019-02-15T11:33:03.382Z,5.67
2019-02-15T11:35:35.002Z,5.30
2019-02-15T11:38:07.885Z,6.27
2019-02-15T11:40:39.771Z,7.20
2019-02-15T11:43:11.293Z,6.13
2019-02-15T11:45:42.914Z,6.03
2019-02-15T11:48:14.383Z,6.27
2019-02-15T11:50:46.055Z,6.57
2019-02-15T11:53:20.421Z,5.87
2019-02-15T11:55:52.081Z,6.23
2019-02-15T11:58:26.011Z,6.97
2019-02-15T12:00:57.651Z,6.57
2019-02-15T12:03:29.249Z,5.47
2019-02-15T12:06:00.954Z,5.27
2019-02-15T12:08:32.443Z,5.73
2019-02-15T12:11:05.244Z,5.97
2019-02-15T12:13:39.714Z,5.80
2019-02-15T12:16:11.296Z,5.77
2019-02-15T12:18:42.914Z,6.37
2019-02-15T12:21:14.453Z,6.43
2019-02-15T12:23:47.489Z,6.13
2019-02-15T12:26:19.175Z,5.47
2019-02-15T12:28:50.806Z,6.87
2019-02-15T12:31:22.335Z,6.13
2019-02-15T12:33:53.949Z,6.77
2019-02-15T12:36:25.647Z,6.40
2019-02-15T12:38:57.329Z,6.63
2019-02-15T12:41:29.195Z,6.73
2019-02-15T12:44:00.869Z,6.33
2019-02-15T12:46:32.386Z,6.23
2019-02-15T12:49:03.997Z,6.77
2019-02-15T12:51:35.576Z,6.83
2019-02-15T12:54:08.848Z,5.53
2019-02-15T12:56:40.532Z,5.90
2019-02-15T12:59:11.988Z,6.13
2019-02-15T13:01:43.589Z,6.17
2019-02-15T13:04:15.226Z,6.00
2019-02-15T13:06:47.044Z,6.43
2019-02-15T13:09:18.684Z,13.70
2019-02-15T13:11:50.360Z,8.87
2019-02-15T13:14:22.007Z,7.23
2019-02-15T13:16:53.636Z,6.10
2019-02-15T13:19:25.339Z,17.40
2019-02-15T13:21:56.848Z,9.67
2019-02-15T13:24:28.523Z,7.27
2019-02-15T13:27:00.213Z,6.87
2019-02-15T13:29:31.849Z,6.07
2019-02-15T13:32:03.594Z,5.90
2019-02-15T13:34:35.386Z,5.73
2019-02-15T13:37:07.052Z,4.77
2019-02-15T13:39:38.676Z,4.90
2019-02-15T13:42:10.309Z,4.40
2019-02-15T13:44:42.010Z,4.07
2019-02-15T13:47:13.621Z,5.37
2019-02-15T13:49:46.638Z,5.40
2019-02-15T13:52:18.257Z,4.60
2019-02-15T13:54:51.697Z,5.07
2019-02-15T13:57:23.545Z,5.33
2019-02-15T13:59:55.105Z,6.27
2019-02-15T14:02:26.696Z,4.73
2019-02-15T14:04:58.305Z,4.00
2019-02-15T14:07:29.797Z,3.90
2019-02-15T14:10:04.238Z,3.87
2019-02-15T14:12:36.993Z,5.80
2019-02-15T14:15:11.501Z,5.33
2019-02-15T14:17:46.353Z,5.23
2019-02-15T14:20:16.266Z,4.93
2019-02-15T14:22:47.915Z,4.77
2019-02-15T14:25:20.723Z,4.10
2019-02-15T14:27:52.485Z,4.70
2019-02-15T14:30:24.083Z,4.93
2019-02-15T14:32:55.748Z,4.40
2019-02-15T14:35:27.296Z,4.37
2019-02-15T14:38:00.284Z,5.33
2019-02-15T14:40:31.864Z,4.73
2019-02-15T14:43:03.636Z,5.10
2019-02-15T14:45:35.095Z,4.70
2019-02-15T14:48:06.793Z,4.80
2019-02-15T14:50:38.375Z,5.30
2019-02-15T14:53:10.116Z,5.67
2019-02-15T14:55:44.118Z,5.10
2019-02-15T14:58:16.020Z,21.17
2019-02-15T15:00:47.503Z,9.30
2019-02-15T15:03:20.552Z,11.43
2019-02-15T15:05:52.094Z,5.87
2019-02-15T15:08:23.698Z,9.40
2019-02-15T15:10:55.225Z,5.60
2019-02-15T15:13:26.928Z,5.83
2019-02-15T15:15:58.496Z,6.10
2019-02-15T15:18:30.265Z,5.67
2019-02-15T15:21:01.874Z,5.50
2019-02-15T15:23:33.697Z,6.70
2019-02-15T15:26:11.608Z,6.73
2019-02-15T15:28:38.800Z,6.03
2019-02-15T15:31:11.235Z,6.73
2019-02-15T15:33:43.132Z,5.80
2019-02-15T15:36:14.790Z,6.83
2019-02-15T15:38:46.333Z,5.93
2019-02-15T15:41:17.860Z,8.67
2019-02-15T15:43:49.381Z,11.10
2019-02-15T15:46:20.995Z,8.40
2019-02-15T15:48:52.433Z,8.00
2019-02-15T15:51:24.132Z,8.50
2019-02-15T15:53:55.594Z,6.50
2019-02-15T15:56:27.150Z,8.93
2019-02-15T15:58:58.824Z,5.43
2019-02-15T16:01:30.415Z,7.93
2019-02-15T16:04:02.073Z,6.47
2019-02-15T16:06:35.116Z,5.37
2019-02-15T16:09:08.095Z,5.33
2019-02-15T16:11:39.862Z,5.43
2019-02-15T16:14:11.394Z,5.00
2019-02-15T16:16:43.153Z,5.20
2019-02-15T16:19:14.678Z,5.60
2019-02-15T16:21:46.364Z,5.57
2019-02-15T16:24:17.828Z,5.90
2019-02-15T16:26:49.537Z,5.50
2019-02-15T16:29:22.428Z,5.20
2019-02-15T16:31:54.125Z,5.80
2019-02-15T16:34:25.693Z,5.43
2019-02-15T16:36:57.396Z,5.37
2019-02-15T16:39:28.946Z,5.80
2019-02-15T16:42:00.622Z,7.23
2019-02-15T16:44:32.264Z,5.90
2019-02-15T16:47:03.867Z,6.17
2019-02-15T16:49:35.500Z,8.13
2019-02-15T16:52:07.092Z,10.07
2019-02-15T16:54:38.714Z,6.63
2019-02-15T16:57:10.289Z,5.90
2019-02-15T16:59:41.981Z,5.67
2019-02-15T17:02:18.728Z,6.73
2019-02-15T17:04:47.079Z,6.23
2019-02-15T17:07:18.773Z,7.67
2019-02-15T17:09:52.714Z,5.40
2019-02-15T17:12:27.066Z,7.10
2019-02-15T17:14:58.544Z,5.37
2019-02-15T17:17:30.249Z,8.03
2019-02-15T17:20:01.761Z,8.23
2019-02-15T17:22:33.593Z,7.20
2019-02-15T17:25:05.195Z,13.97
2019-02-15T17:27:37.016Z,6.90
2019-02-15T17:30:09.215Z,7.07
2019-02-15T17:32:43.216Z,5.90
2019-02-15T17:35:14.828Z,6.77
2019-02-15T17:37:46.489Z,5.57
2019-02-15T17:40:18.182Z,7.93
2019-02-15T17:42:49.908Z,7.33
2019-02-15T17:45:21.512Z,5.77
2019-02-15T17:47:55.311Z,7.67
2019-02-15T17:50:26.914Z,6.77
2019-02-15T17:53:01.005Z,8.27
2019-02-15T17:55:32.543Z,7.90
2019-02-15T17:58:05.607Z,8.67
2019-02-15T18:00:37.226Z,9.33
2019-02-15T18:03:08.790Z,8.23
2019-02-15T18:05:40.333Z,7.50
2019-02-15T18:08:12.061Z,7.07
2019-02-15T18:10:43.703Z,12.27
2019-02-15T18:13:15.277Z,8.43
2019-02-15T18:15:46.837Z,7.27
2019-02-15T18:18:18.495Z,8.73
2019-02-15T18:20:50.052Z,6.97
2019-02-15T18:23:21.720Z,8.20
2019-02-15T18:25:53.279Z,7.43
2019-02-15T18:28:24.930Z,7.77
2019-02-15T18:30:57.699Z,8.07
2019-02-15T18:33:30.909Z,7.40
2019-02-15T18:36:04.037Z,7.07
2019-02-15T18:38:41.006Z,7.90
2019-02-15T18:41:13.746Z,7.50
2019-02-15T18:43:45.919Z,7.27
2019-02-15T18:46:17.499Z,7.27
2019-02-15T18:48:49.142Z,7.20
2019-02-15T18:51:20.767Z,7.47
2019-02-15T18:53:52.403Z,10.40
2019-02-15T18:56:23.928Z,9.23
2019-02-15T18:58:55.731Z,8.17
2019-02-15T19:01:27.352Z,9.90
2019-02-15T19:03:58.994Z,16.73
2019-02-15T19:06:30.600Z,15.07
2019-02-15T19:09:02.200Z,12.20
2019-02-15T19:11:34.940Z,14.43
2019-02-15T19:14:06.644Z,11.67
2019-02-15T19:16:40.922Z,11.37
2019-02-15T19:19:14.733Z,12.93
2019-02-15T19:21:47.705Z,12.20
2019-02-15T19:24:19.633Z,10.93
2019-02-15T19:26:51.351Z,11.17
2019-02-15T19:29:23.172Z,11.07
2019-02-15T19:31:56.996Z,13.40
2019-02-15T19:34:28.379Z,17.33
2019-02-15T19:36:59.859Z,14.00
2019-02-15T19:39:31.663Z,13.70
2019-02-15T19:42:03.964Z,12.17
2019-02-15T19:44:35.655Z,12.80
2019-02-15T19:47:07.314Z,13.70
2019-02-15T19:49:40.654Z,13.90
2019-02-15T19:52:12.233Z,14.33
2019-02-15T19:54:44.959Z,15.87
2019-02-15T19:57:16.643Z,17.00
2019-02-15T19:59:53.782Z,17.03
2019-02-15T20:02:21.872Z,16.63
2019-02-15T20:04:53.415Z,17.93
2019-02-15T20:07:26.356Z,17.53
2019-02-15T20:09:58.049Z,17.97
2019-02-15T20:12:29.573Z,18.17
2019-02-15T20:15:01.241Z,18.40
2019-02-15T20:17:32.769Z,18.23
2019-02-15T20:20:04.468Z,18.97
2019-02-15T20:22:36.168Z,18.47
2019-02-15T20:25:08.459Z,19.10
2019-02-15T20:27:40.200Z,21.57
2019-02-15T20:30:14.512Z,24.30
2019-02-15T20:32:46.222Z,22.37
2019-02-15T20:35:17.882Z,22.20
2019-02-15T20:37:49.555Z,21.83
2019-02-15T20:40:21.086Z,22.30
2019-02-15T20:42:52.845Z,20.50
2019-02-15T20:45:24.411Z,20.33
2019-02-15T20:47:58.551Z,20.13
2019-02-15T20:50:30.112Z,20.93
2019-02-15T20:53:01.813Z,22.50
2019-02-15T20:55:33.484Z,20.63
2019-02-15T20:58:05.055Z,20.53
2019-02-15T21:00:36.724Z,20.30
2019-02-15T21:03:08.322Z,20.53
2019-02-15T21:05:39.892Z,19.80
2019-02-15T21:08:11.587Z,44.87
2019-02-15T21:10:43.152Z,46.73
2019-02-15T21:13:20.458Z,53.30
2019-02-15T21:15:48.175Z,86.40
2019-02-15T21:18:19.811Z,73.70
2019-02-15T21:20:51.510Z,113.20
2019-02-15T21:23:22.987Z,52.07
2019-02-15T21:25:54.824Z,151.77
2019-02-15T21:28:26.402Z,90.70
2019-02-15T21:30:58.125Z,160.23
2019-02-15T21:33:29.745Z,106.60
2019-02-15T21:36:01.235Z,114.17
2019-02-15T21:38:32.968Z,84.90
2019-02-15T21:41:04.600Z,130.00
2019-02-15T21:43:36.174Z,96.57
2019-02-15T21:46:07.893Z,71.70
2019-02-15T21:48:39.726Z,68.20
2019-02-15T21:51:11.527Z,45.30
2019-02-15T21:53:44.761Z,54.63
2019-02-15T21:56:16.517Z,68.13
2019-02-15T21:58:49.440Z,70.37
2019-02-15T22:01:21.110Z,61.43
2019-02-15T22:03:52.688Z,49.17
2019-02-15T22:06:24.360Z,45.00
2019-02-15T22:08:55.982Z,30.00
2019-02-15T22:11:27.540Z,31.13
2019-02-15T22:13:59.160Z,35.70
2019-02-15T22:16:30.773Z,29.17
2019-02-15T22:19:02.433Z,21.03
2019-02-15T22:21:34.128Z,21.90
2019-02-15T22:24:05.899Z,30.27
2019-02-15T22:26:38.593Z,19.87
2019-02-15T22:29:10.235Z,22.67
2019-02-15T22:31:45.115Z,16.30
2019-02-15T22:34:16.865Z,16.83
2019-02-15T22:36:49.403Z,15.70
2019-02-15T22:39:21.021Z,16.30
2019-02-15T22:41:52.545Z,15.50
2019-02-15T22:44:24.253Z,16.90
2019-02-15T22:46:58.678Z,16.30
2019-02-15T22:49:30.399Z,17.07
2019-02-15T22:52:03.258Z,15.50
2019-02-15T22:54:34.915Z,20.13
2019-02-15T22:57:08.060Z,17.53
2019-02-15T22:59:39.666Z,15.63
2019-02-15T23:02:13.305Z,16.33
2019-02-15T23:04:44.846Z,14.67
2019-02-15T23:07:17.458Z,15.07
2019-02-15T23:09:49.062Z,16.57
2019-02-15T23:12:21.336Z,13.83
2019-02-15T23:14:52.939Z,14.00
2019-02-15T23:17:24.547Z,14.70
2019-02-15T23:19:56.165Z,14.47
2019-02-15T23:22:35.571Z,15.03
2019-02-15T23:25:07.423Z,13.67
2019-02-15T23:27:39.048Z,14.37
2019-02-15T23:30:10.752Z,14.50
2019-02-15T23:32:42.346Z,14.30
2019-02-15T23:35:14.017Z,13.87
2019-02-15T23:37:45.792Z,15.80
2019-02-15T23:40:18.765Z,17.03
2019-02-15T23:42:51.266Z,15.53
2019-02-15T23:45:22.869Z,15.40
2019-02-15T23:47:54.561Z,16.30
2019-02-15T23:50:28.777Z,15.00
2019-02-15T23:53:00.387Z,14.93
2019-02-15T23:55:34.253Z,14.53
2019-02-15T23:58:07.183Z,13.70
